Pagina principale
METAR-TAF:

METAR-TAF

Aeroporti :

Terceira, Azzorre, Portogallo

latitudine: 38-46N, longitudine: 027-06W, altezza: 52 m

Osservazione

Il bollettino è stato emesso 1 ora e 2 minuti fa, alle 18:00 UTC
Temperature 14°C
Umidità 72%
Pressione 1028 hPa
Visibilità 10 km o più
Poco nuvoloso ad un'altezza di 2600 ft
Nubi sparse ad un'altezza di 3500 ft

METAR: LPLA 161800Z /////KT 9999 FEW026 SCT035 14/09 Q1028

Ora: 18:02 (19:02 UTC)

Previsione

Il bollettino è stato emesso 2 ore e 1 minuti fa, alle 17:01 UTC
Previsione valida dal 16 alle 18 UTC al 17 alle 18 UTC
Vento 15 kt da ovest/nord-ovest
Visibilità 10 km o più
Nubi sparse ad un'altezza di 1500 ft
Nuvoloso ad un'altezza di 3000 ft
Temporaneamente
dal 16 alle 18 UTC al 16 alle 24 UTC
Vento 18 kt da nord-ovest con raffiche fino a 30 kt
Evoluzione graduale
dal 17 alle 01 UTC al 17 alle 03 UTC
Vento 5 kt da nord

TAF: LPLA 161701Z 1618/1718 30015KT 9999 SCT015 BKN030 TEMPO 1618/1624 31018G30KT BECMG 1701/1703 36005KT

Osservazioni e previsioni meteorologiche di più di 4000 aeroporti (messaggi METAR e TAF).

Le stazioni disponibili sono rappresentate dai dischi gialli e rossi sulla carta.

Puntare il mouse per vedere il nome della stazione.

Clicca sopra per visualizzare le osservazioni e previsioni meteorologiche.

Per cambiare la mappa : fare clic sui pulsanti verdi con una croce nera per ingrandire, il pulsante verde con un trattino per diminuire, o sulla freccia verde per le mappe adiacenti.


METAR-TAF: